sensor_id;sensor_type;location;lat;lon;timestamp;pressure;altitude;pressure_sealevel;temperature;humidity
72409;BME280;60402;48.082;11.628;2022-12-07T00:01:34;95291.94;;;2.38;100.00
72409;BME280;60402;48.082;11.628;2022-12-07T00:04:02;95284.38;;;2.31;100.00
72409;BME280;60402;48.082;11.628;2022-12-07T00:06:35;95287.19;;;2.42;100.00
72409;BME280;60402;48.082;11.628;2022-12-07T00:09:03;95296.69;;;2.23;100.00
72409;BME280;60402;48.082;11.628;2022-12-07T00:11:29;95288.75;;;2.28;100.00
72409;BME280;60402;48.082;11.628;2022-12-07T00:13:57;95271.59;;;2.12;100.00
72409;BME280;60402;48.082;11.628;2022-12-07T00:16:26;95268.41;;;2.17;100.00
72409;BME280;60402;48.082;11.628;2022-12-07T00:18:52;95290.34;;;2.26;100.00
72409;BME280;60402;48.082;11.628;2022-12-07T00:21:20;95284.78;;;2.26;100.00
72409;BME280;60402;48.082;11.628;2022-12-07T00:23:47;95268.00;;;2.19;100.00
72409;BME280;60402;48.082;11.628;2022-12-07T00:28:39;95248.06;;;1.99;100.00
72409;BME280;60402;48.082;11.628;2022-12-07T00:31:06;95254.06;;;2.04;100.00
72409;BME280;60402;48.082;11.628;2022-12-07T00:33:33;95239.28;;;1.86;100.00
72409;BME280;60402;48.082;11.628;2022-12-07T00:35:59;95264.78;;;2.06;100.00
72409;BME280;60402;48.082;11.628;2022-12-07T00:38:27;95262.41;;;2.04;100.00
72409;BME280;60402;48.082;11.628;2022-12-07T00:40:58;95274.38;;;2.16;100.00
72409;BME280;60402;48.082;11.628;2022-12-07T00:43:24;95275.19;;;2.13;100.00
72409;BME280;60402;48.082;11.628;2022-12-07T00:45:50;95264.81;;;2.10;100.00
72409;BME280;60402;48.082;11.628;2022-12-07T00:48:15;95252.06;;;2.05;100.00
72409;BME280;60402;48.082;11.628;2022-12-07T00:50:40;95246.47;;;1.94;100.00
72409;BME280;60402;48.082;11.628;2022-12-07T00:53:06;95191.88;;;1.65;100.00
72409;BME280;60402;48.082;11.628;2022-12-07T00:55:35;95281.56;;;2.20;100.00
72409;BME280;60402;48.082;11.628;2022-12-07T00:58:00;95275.97;;;2.13;100.00
72409;BME280;60402;48.082;11.628;2022-12-07T01:00:26;95274.75;;;2.11;100.00
72409;BME280;60402;48.082;11.628;2022-12-07T01:02:52;95281.56;;;2.17;100.00
72409;BME280;60402;48.082;11.628;2022-12-07T01:05:17;95235.28;;;1.87;100.00
72409;BME280;60402;48.082;11.628;2022-12-07T01:07:42;95233.31;;;1.91;100.00
72409;BME280;60402;48.082;11.628;2022-12-07T01:10:08;95258.84;;;2.08;100.00
72409;BME280;60402;48.082;11.628;2022-12-07T01:12:33;95274.75;;;2.11;100.00
72409;BME280;60402;48.082;11.628;2022-12-07T01:14:59;95256.03;;;2.00;100.00
72409;BME280;60402;48.082;11.628;2022-12-07T01:17:24;95193.44;;;1.59;100.00
72409;BME280;60402;48.082;11.628;2022-12-07T01:19:49;95249.66;;;1.96;100.00
72409;BME280;60402;48.082;11.628;2022-12-07T01:22:14;95219.34;;;1.73;100.00
72409;BME280;60402;48.082;11.628;2022-12-07T01:24:40;95236.91;;;1.95;100.00
72409;BME280;60402;48.082;11.628;2022-12-07T01:27:05;95270.00;;;2.15;100.00
72409;BME280;60402;48.082;11.628;2022-12-07T01:29:30;95249.63;;;1.93;100.00
72409;BME280;60402;48.082;11.628;2022-12-07T01:31:56;95254.06;;;2.04;100.00
72409;BME280;60402;48.082;11.628;2022-12-07T01:34:21;95280.34;;;2.11;100.00
72409;BME280;60402;48.082;11.628;2022-12-07T01:36:46;95262.78;;;1.96;100.00
72409;BME280;60402;48.082;11.628;2022-12-07T01:39:12;95268.00;;;2.04;100.00
72409;BME280;60402;48.082;11.628;2022-12-07T01:41:39;95282.31;;;2.10;100.00
72409;BME280;60402;48.082;11.628;2022-12-07T01:46:37;95277.56;;;2.14;100.00
72409;BME280;60402;48.082;11.628;2022-12-07T01:49:06;95264.81;;;2.02;100.00
72409;BME280;60402;48.082;11.628;2022-12-07T01:51:34;95273.56;;;2.08;100.00
72409;BME280;60402;48.082;11.628;2022-12-07T01:54:00;95252.44;;;1.96;100.00
72409;BME280;60402;48.082;11.628;2022-12-07T01:56:28;95260.81;;;2.00;100.00
72409;BME280;60402;48.082;11.628;2022-12-07T01:58:55;95254.84;;;1.98;100.00
72409;BME280;60402;48.082;11.628;2022-12-07T02:01:21;95263.97;;;2.02;100.00
72409;BME280;60402;48.082;11.628;2022-12-07T02:03:46;95253.22;;;1.97;100.00
72409;BME280;60402;48.082;11.628;2022-12-07T02:06:14;95276.38;;;2.08;100.00
72409;BME280;60402;48.082;11.628;2022-12-07T02:08:42;95264.78;;;1.99;100.00
72409;BME280;60402;48.082;11.628;2022-12-07T02:11:07;95217.34;;;1.77;100.00
72409;BME280;60402;48.082;11.628;2022-12-07T02:13:35;95249.28;;;1.98;100.00
72409;BME280;60402;48.082;11.628;2022-12-07T02:21:46;95254.03;;;1.94;100.00
72409;BME280;60402;48.082;11.628;2022-12-07T02:32:26;95250.09;;;2.13;100.00
72409;BME280;60402;48.082;11.628;2022-12-07T02:37:37;95237.28;;;1.87;100.00
72409;BME280;60402;48.082;11.628;2022-12-07T02:40:14;95236.09;;;1.88;100.00
72409;BME280;60402;48.082;11.628;2022-12-07T02:42:49;95228.16;;;1.93;100.00
72409;BME280;60402;48.082;11.628;2022-12-07T02:45:18;95246.47;;;2.05;100.00
72409;BME280;60402;48.082;11.628;2022-12-07T02:47:48;95231.31;;;1.88;100.00
72409;BME280;60402;48.082;11.628;2022-12-07T02:50:18;95239.69;;;1.95;100.00
72409;BME280;60402;48.082;11.628;2022-12-07T02:52:44;95192.25;;;1.56;100.00
72409;BME280;60402;48.082;11.628;2022-12-07T02:55:10;95235.28;;;1.80;100.00
72409;BME280;60402;48.082;11.628;2022-12-07T02:58:18;95255.19;;;1.93;100.00
72409;BME280;60402;48.082;11.628;2022-12-07T03:01:03;95210.97;;;1.66;100.00
72409;BME280;60402;48.082;11.628;2022-12-07T03:03:30;95227.75;;;1.84;100.00
72409;BME280;60402;48.082;11.628;2022-12-07T03:06:10;95250.50;;;2.08;100.00
72409;BME280;60402;48.082;11.628;2022-12-07T03:08:50;95228.53;;;1.81;100.00
72409;BME280;60402;48.082;11.628;2022-12-07T03:11:25;95216.53;;;1.63;100.00
72409;BME280;60402;48.082;11.628;2022-12-07T03:14:23;95225.28;;;1.61;100.00
72409;BME280;60402;48.082;11.628;2022-12-07T03:17:11;95218.09;;;1.57;100.00
72409;BME280;60402;48.082;11.628;2022-12-07T03:19:38;95230.88;;;1.72;100.00
72409;BME280;60402;48.082;11.628;2022-12-07T03:22:10;95244.84;;;1.83;100.00
72409;BME280;60402;48.082;11.628;2022-12-07T03:24:43;95233.28;;;1.70;100.00
72409;BME280;60402;48.082;11.628;2022-12-07T03:30:00;95237.66;;;1.78;100.00
72409;BME280;60402;48.082;11.628;2022-12-07T03:32:32;95241.66;;;1.84;100.00
72409;BME280;60402;48.082;11.628;2022-12-07T03:35:23;95236.47;;;1.75;100.00
72409;BME280;60402;48.082;11.628;2022-12-07T03:38:30;95237.28;;;1.87;100.00
72409;BME280;60402;48.082;11.628;2022-12-07T03:41:16;95232.94;;;1.89;100.00
72409;BME280;60402;48.082;11.628;2022-12-07T03:43:43;95208.19;;;1.73;100.00
72409;BME280;60402;48.082;11.628;2022-12-07T03:46:50;95205.81;;;1.65;100.00
72409;BME280;60402;48.082;11.628;2022-12-07T03:49:43;95222.53;;;1.75;100.00
72409;BME280;60402;48.082;11.628;2022-12-07T03:52:28;95237.72;;;1.96;100.00
72409;BME280;60402;48.082;11.628;2022-12-07T03:55:34;95219.75;;;1.75;100.00
72409;BME280;60402;48.082;11.628;2022-12-07T03:58:06;95169.53;;;1.43;100.00
72409;BME280;60402;48.082;11.628;2022-12-07T04:00:33;95222.53;;;1.83;100.00
72409;BME280;60402;48.082;11.628;2022-12-07T04:02:58;95226.94;;;1.84;100.00
72409;BME280;60402;48.082;11.628;2022-12-07T04:05:24;95234.91;;;1.92;100.00
72409;BME280;60402;48.082;11.628;2022-12-07T04:07:49;95201.03;;;1.65;100.00
72409;BME280;60402;48.082;11.628;2022-12-07T04:10:15;95161.19;;;1.50;100.00
72409;BME280;60402;48.082;11.628;2022-12-07T04:12:40;95216.63;;;1.95;100.00
72409;BME280;60402;48.082;11.628;2022-12-07T04:15:06;95228.97;;;1.94;100.00
72409;BME280;60402;48.082;11.628;2022-12-07T04:17:32;95226.97;;;1.94;100.00
72409;BME280;60402;48.082;11.628;2022-12-07T04:19:57;95211.00;;;1.81;100.00
72409;BME280;60402;48.082;11.628;2022-12-07T04:22:22;95222.56;;;1.86;100.00
72409;BME280;60402;48.082;11.628;2022-12-07T04:24:48;95224.94;;;1.88;100.00
72409;BME280;60402;48.082;11.628;2022-12-07T04:27:13;95223.75;;;1.85;100.00
72409;BME280;60402;48.082;11.628;2022-12-07T04:29:39;95226.56;;;1.96;100.00
72409;BME280;60402;48.082;11.628;2022-12-07T04:32:04;95226.16;;;1.97;100.00
72409;BME280;60402;48.082;11.628;2022-12-07T04:34:29;95175.16;;;1.68;100.00
72409;BME280;60402;48.082;11.628;2022-12-07T04:36:55;95228.56;;;1.95;100.00
72409;BME280;60402;48.082;11.628;2022-12-07T04:39:26;95216.19;;;1.82;100.00
72409;BME280;60402;48.082;11.628;2022-12-07T04:41:52;95203.06;;;1.79;100.00
72409;BME280;60402;48.082;11.628;2022-12-07T04:44:18;95209.78;;;1.78;100.00
72409;BME280;60402;48.082;11.628;2022-12-07T04:46:45;95227.34;;;1.93;100.00
72409;BME280;60402;48.082;11.628;2022-12-07T04:49:11;95219.34;;;1.73;100.00
72409;BME280;60402;48.082;11.628;2022-12-07T04:51:37;95178.31;;;1.56;100.00
72409;BME280;60402;48.082;11.628;2022-12-07T04:54:02;95224.94;;;1.88;100.00
72409;BME280;60402;48.082;11.628;2022-12-07T04:56:28;95199.03;;;1.66;100.00
72409;BME280;60402;48.082;11.628;2022-12-07T04:58:54;95228.91;;;1.83;100.00
72409;BME280;60402;48.082;11.628;2022-12-07T05:01:20;95211.41;;;1.79;100.00
72409;BME280;60402;48.082;11.628;2022-12-07T05:03:46;95199.84;;;1.77;100.00
72409;BME280;60402;48.082;11.628;2022-12-07T05:06:12;95220.16;;;1.81;100.00
72409;BME280;60402;48.082;11.628;2022-12-07T05:08:37;95235.75;;;2.03;100.00
72409;BME280;60402;48.082;11.628;2022-12-07T05:11:03;95211.41;;;1.75;100.00
72409;BME280;60402;48.082;11.628;2022-12-07T05:13:29;95232.16;;;1.99;100.00
72409;BME280;60402;48.082;11.628;2022-12-07T05:15:54;95214.59;;;1.81;100.00
72409;BME280;60402;48.082;11.628;2022-12-07T05:18:20;95223.38;;;1.90;100.00
72409;BME280;60402;48.082;11.628;2022-12-07T05:20:45;95174.38;;;1.71;100.00
72409;BME280;60402;48.082;11.628;2022-12-07T05:23:11;95232.13;;;1.96;100.00
72409;BME280;60402;48.082;11.628;2022-12-07T05:25:36;95228.94;;;1.87;100.00
72409;BME280;60402;48.082;11.628;2022-12-07T05:28:03;95189.84;;;1.58;100.00
72409;BME280;60402;48.082;11.628;2022-12-07T05:30:28;95183.06;;;1.48;100.00
72409;BME280;60402;48.082;11.628;2022-12-07T05:32:54;95222.53;;;1.75;100.00
72409;BME280;60402;48.082;11.628;2022-12-07T05:35:20;95240.06;;;1.83;100.00
72409;BME280;60402;48.082;11.628;2022-12-07T05:37:45;95196.63;;;1.57;100.00
72409;BME280;60402;48.082;11.628;2022-12-07T05:40:13;95215.34;;;1.67;100.00
72409;BME280;60402;48.082;11.628;2022-12-07T05:42:39;95218.16;;;1.71;100.00
72409;BME280;60402;48.082;11.628;2022-12-07T05:45:05;95211.78;;;1.74;100.00
72409;BME280;60402;48.082;11.628;2022-12-07T05:47:31;95228.47;;;1.74;100.00
72409;BME280;60402;48.082;11.628;2022-12-07T05:49:56;95215.75;;;1.66;100.00
72409;BME280;60402;48.082;11.628;2022-12-07T05:52:22;95217.31;;;1.63;100.00
72409;BME280;60402;48.082;11.628;2022-12-07T05:54:52;95219.72;;;1.68;100.00
72409;BME280;60402;48.082;11.628;2022-12-07T05:57:18;95166.34;;;1.38;100.00
72409;BME280;60402;48.082;11.628;2022-12-07T05:59:47;95153.97;;;1.24;100.00
72409;BME280;60402;48.082;11.628;2022-12-07T06:02:16;95179.44;;;1.34;100.00
72409;BME280;60402;48.082;11.628;2022-12-07T06:04:46;95160.72;;;1.27;100.00
72409;BME280;60402;48.082;11.628;2022-12-07T06:07:16;95240.81;;;1.66;100.00
72409;BME280;60402;48.082;11.628;2022-12-07T06:09:41;95206.13;;;1.49;100.00
72409;BME280;60402;48.082;11.628;2022-12-07T06:12:10;95216.09;;;1.46;100.00
72409;BME280;60402;48.082;11.628;2022-12-07T06:14:54;95171.47;;;1.28;100.00
72409;BME280;60402;48.082;11.628;2022-12-07T06:17:19;95225.69;;;1.63;100.00
72409;BME280;60402;48.082;11.628;2022-12-07T06:19:48;95241.63;;;1.73;100.00
72409;BME280;60402;48.082;11.628;2022-12-07T06:22:13;95243.59;;;1.69;100.00
72409;BME280;60402;48.082;11.628;2022-12-07T06:24:39;95236.81;;;1.63;100.00
72409;BME280;60402;48.082;11.628;2022-12-07T06:27:05;95245.59;;;1.72;100.00
72409;BME280;60402;48.082;11.628;2022-12-07T06:29:31;95247.19;;;1.70;100.00
72409;BME280;60402;48.082;11.628;2022-12-07T06:31:56;95246.38;;;1.69;100.00
72409;BME280;60402;48.082;11.628;2022-12-07T06:34:23;95239.22;;;1.65;100.00
72409;BME280;60402;48.082;11.628;2022-12-07T06:36:49;95248.78;;;1.78;100.00
72409;BME280;60402;48.082;11.628;2022-12-07T06:39:22;95264.69;;;1.74;100.00
72409;BME280;60402;48.082;11.628;2022-12-07T06:41:48;95232.03;;;1.64;100.00
72409;BME280;60402;48.082;11.628;2022-12-07T06:44:13;95240.03;;;1.65;100.00
72409;BME280;60402;48.082;11.628;2022-12-07T06:46:39;95208.91;;;1.42;100.00
72409;BME280;60402;48.082;11.628;2022-12-07T06:49:05;95242.38;;;1.63;100.00
72409;BME280;60402;48.082;11.628;2022-12-07T06:51:31;95255.59;;;1.81;100.00
72409;BME280;60402;48.082;11.628;2022-12-07T06:53:57;95213.31;;;1.46;100.00
72409;BME280;60402;48.082;11.628;2022-12-07T06:56:25;95209.69;;;1.39;100.00
72409;BME280;60402;48.082;11.628;2022-12-07T06:58:51;95245.16;;;1.63;100.00
72409;BME280;60402;48.082;11.628;2022-12-07T07:01:28;95242.78;;;1.62;100.00
72409;BME280;60402;48.082;11.628;2022-12-07T07:03:53;95221.63;;;1.39;100.00
72409;BME280;60402;48.082;11.628;2022-12-07T07:06:19;95214.03;;;1.36;100.00
72409;BME280;60402;48.082;11.628;2022-12-07T07:08:44;95198.09;;;1.26;100.00
72409;BME280;60402;48.082;11.628;2022-12-07T07:11:34;95273.84;;;1.67;100.00
72409;BME280;60402;48.082;11.628;2022-12-07T07:14:08;95222.03;;;1.45;100.00
72409;BME280;60402;48.082;11.628;2022-12-07T07:16:50;95186.56;;;1.24;100.00
72409;BME280;60402;48.082;11.628;2022-12-07T07:19:23;95215.66;;;1.41;100.00
72409;BME280;60402;48.082;11.628;2022-12-07T07:22:52;95267.06;;;1.68;100.00
72409;BME280;60402;48.082;11.628;2022-12-07T07:25:44;95276.69;;;1.82;100.00
72409;BME280;60402;48.082;11.628;2022-12-07T07:28:09;95227.59;;;1.38;100.00
72409;BME280;60402;48.082;11.628;2022-12-07T07:34:16;95225.97;;;1.33;100.00
72409;BME280;60402;48.082;11.628;2022-12-07T07:36:41;95237.53;;;1.39;100.00
72409;BME280;60402;48.082;11.628;2022-12-07T07:39:06;95261.88;;;1.56;100.00
72409;BME280;60402;48.082;11.628;2022-12-07T07:41:46;95235.91;;;1.34;100.00
72409;BME280;60402;48.082;11.628;2022-12-07T07:47:06;95248.75;;;1.57;100.00
72409;BME280;60402;48.082;11.628;2022-12-07T07:49:31;95235.13;;;1.37;100.00
72409;BME280;60402;48.082;11.628;2022-12-07T07:51:57;95271.81;;;1.57;100.00
72409;BME280;60402;48.082;11.628;2022-12-07T07:54:23;95283.00;;;1.71;100.00
72409;BME280;60402;48.082;11.628;2022-12-07T07:56:50;95255.84;;;1.50;100.00
72409;BME280;60402;48.082;11.628;2022-12-07T07:59:19;95222.78;;;1.35;100.00
72409;BME280;60402;48.082;11.628;2022-12-07T08:01:45;95288.22;;;1.80;100.00
72409;BME280;60402;48.082;11.628;2022-12-07T08:04:10;95231.19;;;1.42;100.00
72409;BME280;60402;48.082;11.628;2022-12-07T08:06:35;95296.16;;;1.78;100.00
72409;BME280;60402;48.082;11.628;2022-12-07T08:09:02;95289.00;;;1.77;100.00
72409;BME280;60402;48.082;11.628;2022-12-07T08:11:29;95282.59;;;1.69;100.00
72409;BME280;60402;48.082;11.628;2022-12-07T08:13:55;95296.59;;;1.91;100.00
72409;BME280;60402;48.082;11.628;2022-12-07T08:16:23;95286.22;;;1.81;100.00
72409;BME280;60402;48.082;11.628;2022-12-07T08:18:51;95285.78;;;1.71;100.00
72409;BME280;60402;48.082;11.628;2022-12-07T08:21:17;95253.09;;;1.54;100.00
72409;BME280;60402;48.082;11.628;2022-12-07T08:23:47;95272.66;;;1.72;100.00
72409;BME280;60402;48.082;11.628;2022-12-07T08:26:19;95227.22;;;1.46;100.00
72409;BME280;60402;48.082;11.628;2022-12-07T08:28:45;95257.16;;;1.71;100.00
72409;BME280;60402;48.082;11.628;2022-12-07T08:31:13;95272.69;;;1.83;100.00
72409;BME280;60402;48.082;11.628;2022-12-07T08:33:39;95246.41;;;1.73;100.00
72409;BME280;60402;48.082;11.628;2022-12-07T08:36:07;95267.13;;;1.79;100.00
72409;BME280;60402;48.082;11.628;2022-12-07T08:38:37;95297.84;;;2.00;100.00
72409;BME280;60402;48.082;11.628;2022-12-07T08:41:03;95295.03;;;1.93;100.00
72409;BME280;60402;48.082;11.628;2022-12-07T08:43:33;95259.53;;;1.65;100.00
72409;BME280;60402;48.082;11.628;2022-12-07T08:48:27;95247.19;;;1.73;100.00
72409;BME280;60402;48.082;11.628;2022-12-07T08:50:52;95246.03;;;1.74;100.00
72409;BME280;60402;48.082;11.628;2022-12-07T08:53:18;95277.13;;;2.01;100.00
72409;BME280;60402;48.082;11.628;2022-12-07T08:55:46;95262.38;;;1.97;100.00
72409;BME280;60402;48.082;11.628;2022-12-07T08:58:12;95217.78;;;1.87;100.00
72409;BME280;60402;48.082;11.628;2022-12-07T09:00:37;95289.53;;;2.25;100.00
72409;BME280;60402;48.082;11.628;2022-12-07T09:03:03;95240.91;;;1.94;100.00
72409;BME280;60402;48.082;11.628;2022-12-07T09:05:33;95238.13;;;2.05;99.69
72409;BME280;60402;48.082;11.628;2022-12-07T09:08:01;95271.19;;;2.10;99.63
72409;BME280;60402;48.082;11.628;2022-12-07T09:10:32;95279.94;;;2.16;100.00
72409;BME280;60402;48.082;11.628;2022-12-07T09:12:58;95234.91;;;1.96;100.00
72409;BME280;60402;48.082;11.628;2022-12-07T09:15:29;95232.94;;;2.11;99.36
72409;BME280;60402;48.082;11.628;2022-12-07T09:17:58;95244.50;;;2.09;99.74
72409;BME280;60402;48.082;11.628;2022-12-07T09:20:24;95284.78;;;2.51;99.25
72409;BME280;60402;48.082;11.628;2022-12-07T09:22:52;95269.66;;;2.45;98.21
72409;BME280;60402;48.082;11.628;2022-12-07T09:25:17;95277.22;;;2.59;98.18
72409;BME280;60402;48.082;11.628;2022-12-07T09:27:42;95270.06;;;2.61;99.24
72409;BME280;60402;48.082;11.628;2022-12-07T09:30:08;95291.59;;;2.93;97.19
72409;BME280;60402;48.082;11.628;2022-12-07T09:32:34;95253.31;;;2.75;96.86
72409;BME280;60402;48.082;11.628;2022-12-07T09:34:59;95277.63;;;2.93;97.38
72409;BME280;60402;48.082;11.628;2022-12-07T09:37:25;95246.13;;;2.71;96.59
72409;BME280;60402;48.082;11.628;2022-12-07T09:39:51;95268.47;;;2.92;96.69
72409;BME280;60402;48.082;11.628;2022-12-07T09:42:38;95289.53;;;3.15;96.13
72409;BME280;60402;48.082;11.628;2022-12-07T09:45:14;95270.78;;;3.15;96.25
72409;BME280;60402;48.082;11.628;2022-12-07T09:47:41;95291.53;;;3.18;95.09
72409;BME280;60402;48.082;11.628;2022-12-07T09:50:19;95285.97;;;3.18;95.07
72409;BME280;60402;48.082;11.628;2022-12-07T09:52:48;95203.47;;;2.77;94.83
72409;BME280;60402;48.082;11.628;2022-12-07T09:55:26;95217.44;;;2.92;95.20
72409;BME280;60402;48.082;11.628;2022-12-07T09:57:52;95208.22;;;3.02;95.44
72409;BME280;60402;48.082;11.628;2022-12-07T10:00:20;95220.94;;;3.17;95.56
72409;BME280;60402;48.082;11.628;2022-12-07T10:02:51;95208.19;;;3.13;93.89
72409;BME280;60402;48.082;11.628;2022-12-07T10:05:45;95277.47;;;3.61;93.86
72409;BME280;60402;48.082;11.628;2022-12-07T10:08:12;95252.78;;;3.38;93.78
72409;BME280;60402;48.082;11.628;2022-12-07T10:10:43;95263.44;;;3.71;93.13
72409;BME280;60402;48.082;11.628;2022-12-07T10:13:14;95205.31;;;3.41;91.70
72409;BME280;60402;48.082;11.628;2022-12-07T10:15:48;95219.22;;;3.52;92.57
72409;BME280;60402;48.082;11.628;2022-12-07T10:18:30;95264.22;;;3.82;92.37
72409;BME280;60402;48.082;11.628;2022-12-07T10:21:18;95275.75;;;3.95;92.01
72409;BME280;60402;48.082;11.628;2022-12-07T10:26:38;95200.81;;;3.65;91.45
72409;BME280;60402;48.082;11.628;2022-12-07T10:34:40;95264.44;;;4.20;88.50
72409;BME280;60402;48.082;11.628;2022-12-07T10:39:55;95236.13;;;4.11;87.87
72409;BME280;60402;48.082;11.628;2022-12-07T10:42:31;95213.31;;;4.13;87.92
72409;BME280;60402;48.082;11.628;2022-12-07T10:45:14;95223.63;;;4.30;87.46
72409;BME280;60402;48.082;11.628;2022-12-07T11:02:02;95180.63;;;4.06;85.23
72409;BME280;60402;48.082;11.628;2022-12-07T11:07:54;95222.25;;;4.52;83.79
72409;BME280;60402;48.082;11.628;2022-12-07T11:13:25;95199.56;;;4.40;84.18
72409;BME280;60402;48.082;11.628;2022-12-07T11:16:04;95216.69;;;4.45;85.12
72409;BME280;60402;48.082;11.628;2022-12-07T11:18:51;95229.09;;;4.44;85.71
72409;BME280;60402;48.082;11.628;2022-12-07T11:21:48;95229.19;;;4.33;85.97
72409;BME280;60402;48.082;11.628;2022-12-07T11:24:24;95162.41;;;3.76;86.96
72409;BME280;60402;48.082;11.628;2022-12-07T11:27:05;95179.19;;;3.80;86.88
72409;BME280;60402;48.082;11.628;2022-12-07T11:38:21;95186.59;;;4.08;86.45
72409;BME280;60402;48.082;11.628;2022-12-07T11:40:53;95188.66;;;4.00;87.02
72409;BME280;60402;48.082;11.628;2022-12-07T11:43:41;95210.75;;;4.40;86.22
72409;BME280;60402;48.082;11.628;2022-12-07T11:46:14;95183.78;;;4.08;87.03
72409;BME280;60402;48.082;11.628;2022-12-07T11:49:02;95179.06;;;3.98;88.22
72409;BME280;60402;48.082;11.628;2022-12-07T11:51:34;95176.25;;;4.01;86.82
72409;BME280;60402;48.082;11.628;2022-12-07T11:54:24;95133.97;;;3.96;86.06
72409;BME280;60402;48.082;11.628;2022-12-07T11:56:53;95145.53;;;3.98;87.24
72409;BME280;60402;48.082;11.628;2022-12-07T11:59:29;95183.09;;;3.97;88.00
72409;BME280;60402;48.082;11.628;2022-12-07T12:02:15;95133.78;;;3.62;88.97
72409;BME280;60402;48.082;11.628;2022-12-07T12:04:53;95125.81;;;3.60;87.87
72409;BME280;60402;48.082;11.628;2022-12-07T12:07:23;95091.22;;;3.40;87.37
72409;BME280;60402;48.082;11.628;2022-12-07T12:09:59;95096.81;;;3.32;88.85
72409;BME280;60402;48.082;11.628;2022-12-07T12:12:40;95184.59;;;4.08;87.42
72409;BME280;60402;48.082;11.628;2022-12-07T12:15:42;95137.78;;;3.57;88.36
72409;BME280;60402;48.082;11.628;2022-12-07T12:18:20;95157.31;;;3.68;88.95
72409;BME280;60402;48.082;11.628;2022-12-07T12:23:41;95107.84;;;3.61;89.51
72409;BME280;60402;48.082;11.628;2022-12-07T12:26:20;95130.44;;;3.81;87.66
72409;BME280;60402;48.082;11.628;2022-12-07T12:28:58;95145.09;;;4.03;87.46
72409;BME280;60402;48.082;11.628;2022-12-07T12:31:38;95156.16;;;4.17;86.12
72409;BME280;60402;48.082;11.628;2022-12-07T12:45:21;95122.00;;;3.92;84.68
72409;BME280;60402;48.082;11.628;2022-12-07T12:48:26;95157.81;;;4.11;84.51
72409;BME280;60402;48.082;11.628;2022-12-07T12:51:35;95138.38;;;3.93;84.92
72409;BME280;60402;48.082;11.628;2022-12-07T12:54:05;95131.19;;;3.96;83.99
72409;BME280;60402;48.082;11.628;2022-12-07T12:56:40;95152.59;;;4.17;84.01
72409;BME280;60402;48.082;11.628;2022-12-07T12:59:30;95150.22;;;4.15;82.76
72409;BME280;60402;48.082;11.628;2022-12-07T13:02:15;95148.88;;;4.30;81.28
72409;BME280;60402;48.082;11.628;2022-12-07T13:04:49;95150.16;;;4.19;81.00
72409;BME280;60402;48.082;11.628;2022-12-07T13:07:51;95148.56;;;4.18;81.58
72409;BME280;60402;48.082;11.628;2022-12-07T13:20:57;95136.25;;;4.08;81.17
72409;BME280;60402;48.082;11.628;2022-12-07T13:26:17;95137.09;;;4.05;81.70
72409;BME280;60402;48.082;11.628;2022-12-07T13:28:46;95129.88;;;4.07;81.85
72409;BME280;60402;48.082;11.628;2022-12-07T13:31:35;95127.97;;;3.97;83.76
72409;BME280;60402;48.082;11.628;2022-12-07T13:34:03;95132.50;;;3.73;86.62
72409;BME280;60402;48.082;11.628;2022-12-07T13:36:32;95121.72;;;3.75;87.04
72409;BME280;60402;48.082;11.628;2022-12-07T13:39:16;95107.09;;;3.53;87.45
72409;BME280;60402;48.082;11.628;2022-12-07T13:41:43;95133.25;;;3.81;86.83
72409;BME280;60402;48.082;11.628;2022-12-07T13:44:13;95130.97;;;3.65;88.03
72409;BME280;60402;48.082;11.628;2022-12-07T13:46:52;95084.44;;;3.37;88.06
72409;BME280;60402;48.082;11.628;2022-12-07T13:49:25;95096.00;;;3.39;88.82
72409;BME280;60402;48.082;11.628;2022-12-07T13:51:51;95101.06;;;3.58;87.21
72409;BME280;60402;48.082;11.628;2022-12-07T13:54:17;95130.41;;;3.92;87.33
72409;BME280;60402;48.082;11.628;2022-12-07T13:56:43;95101.75;;;3.77;87.17
72409;BME280;60402;48.082;11.628;2022-12-07T13:59:25;95101.22;;;3.96;86.89
72409;BME280;60402;48.082;11.628;2022-12-07T14:01:52;95126.28;;;4.10;86.03
72409;BME280;60402;48.082;11.628;2022-12-07T14:04:35;95117.38;;;4.23;84.71
72409;BME280;60402;48.082;11.628;2022-12-07T14:07:18;95112.63;;;4.16;83.43
72409;BME280;60402;48.082;11.628;2022-12-07T14:10:03;95119.16;;;3.99;82.65
72409;BME280;60402;48.082;11.628;2022-12-07T14:12:30;95096.53;;;3.79;83.81
72409;BME280;60402;48.082;11.628;2022-12-07T14:14:57;95123.59;;;3.96;84.27
72409;BME280;60402;48.082;11.628;2022-12-07T14:17:24;95120.91;;;3.75;86.38
72409;BME280;60402;48.082;11.628;2022-12-07T14:19:56;95126.94;;;3.70;86.27
72409;BME280;60402;48.082;11.628;2022-12-07T14:22:37;95120.97;;;3.68;86.07
72409;BME280;60402;48.082;11.628;2022-12-07T14:25:21;95119.06;;;3.50;86.90
72409;BME280;60402;48.082;11.628;2022-12-07T14:27:55;95120.22;;;3.56;86.89
72409;BME280;60402;48.082;11.628;2022-12-07T14:30:23;95108.69;;;3.51;86.80
72409;BME280;60402;48.082;11.628;2022-12-07T14:33:00;95126.22;;;3.55;86.93
72409;BME280;60402;48.082;11.628;2022-12-07T14:35:26;95118.66;;;3.55;87.25
72409;BME280;60402;48.082;11.628;2022-12-07T14:37:52;95118.22;;;3.57;86.33
72409;BME280;60402;48.082;11.628;2022-12-07T14:40:20;95109.13;;;3.46;87.03
72409;BME280;60402;48.082;11.628;2022-12-07T14:42:47;95103.97;;;3.41;87.34
72409;BME280;60402;48.082;11.628;2022-12-07T14:45:20;95096.47;;;3.27;87.23
72409;BME280;60402;48.082;11.628;2022-12-07T14:47:46;95107.66;;;3.20;87.17
72409;BME280;60402;48.082;11.628;2022-12-07T14:50:13;95107.22;;;3.28;88.21
72409;BME280;60402;48.082;11.628;2022-12-07T14:52:39;95124.38;;;3.27;88.45
72409;BME280;60402;48.082;11.628;2022-12-07T14:55:13;95098.16;;;3.03;88.91